This is the latest recevied weather packets stored in our database for station/object 9M2EVR-2. If no packets are shown the sender has not sent any weather packets the latest 10 day(s).
| Time | Temp. | Humidity | Pressure | Rain* | Wind** | Luminosity | Snow |
|---|---|---|---|---|---|---|---|
| 1778082211 | 45.56° C | 35% | 1007.3 hPa | - | - | - | - |
| 1778081310 | 45.56° C | 35% | 1007.2 hPa | - | - | - | - |
| 1778080409 | 46.11° C | 34% | 1007 hPa | - | - | - | - |
| 1778079508 | 46.11° C | 35% | 1007 hPa | - | - | - | - |
| 1778078607 | 46.11° C | 35% | 1007 hPa | - | - | - | - |
| 1778077707 | 46.11° C | 35% | 1006.9 hPa | - | - | - | - |
| 1778076806 | 46.11° C | 35% | 1006.4 hPa | - | - | - | - |
| 1778075904 | 45.56° C | 36% | 1006.7 hPa | - | - | - | - |
| 1778075004 | 43.33° C | 39% | 1006.8 hPa | - | - | - | - |
| 1778074066 | 37.22° C | 48% | 1006.6 hPa | - | - | - | - |
| 1778073165 | 37.78° C | 47% | 1006 hPa | - | - | - | - |
| 1778072264 | 38.33° C | 47% | 1005.4 hPa | - | - | - | - |
| 1778071363 | 38.89° C | 47% | 1004.8 hPa | - | - | - | - |
| 1778070463 | 38.89° C | 46% | 1004.6 hPa | - | - | - | - |
| 1778068700 | 39.44° C | 45% | 1004 hPa | - | - | - | - |
| 1778067799 | 39.44° C | 45% | 1004.2 hPa | - | - | - | - |
| 1778066898 | 40° C | 45% | 1003.9 hPa | - | - | - | - |
| 1778065997 | 40.56° C | 44% | 1003.5 hPa | - | - | - | - |
| 1778065097 | 40.56° C | 44% | 1003.4 hPa | - | - | - | - |
| 1778064196 | 41.11° C | 44% | 1003 hPa | - | - | - | - |
| 1778063295 | 40° C | 47% | 1002.8 hPa | - | - | - | - |
| 1778062394 | 40° C | 47% | 1002.5 hPa | - | - | - | - |
| 1778061493 | 40.56° C | 45% | 1002.1 hPa | - | - | - | - |
| 1778060593 | 41.11° C | 44% | 1002.2 hPa | - | - | - | - |
| 1778059692 | 42.22° C | 41% | 1002.3 hPa | - | - | - | - |
* Rain since midnight (hover to see other rain measurements)
** Current wind speed in m/s (hover to see current wind gust speed)